sensor_id;sensor_type;location;lat;lon;timestamp;temperature;humidity
10437;DHT22;5265;50.006;9.202;2023-06-22T00:00:53;20.60;99.90
10437;DHT22;5265;50.006;9.202;2023-06-22T00:03:21;20.60;99.90
10437;DHT22;5265;50.006;9.202;2023-06-22T00:05:48;20.30;99.90
10437;DHT22;5265;50.006;9.202;2023-06-22T00:08:16;20.00;99.90
10437;DHT22;5265;50.006;9.202;2023-06-22T00:10:43;20.00;99.90
10437;DHT22;5265;50.006;9.202;2023-06-22T00:13:10;20.00;99.90
10437;DHT22;5265;50.006;9.202;2023-06-22T00:15:39;20.20;99.90
10437;DHT22;5265;50.006;9.202;2023-06-22T00:18:07;20.30;99.90
10437;DHT22;5265;50.006;9.202;2023-06-22T00:20:34;20.40;99.90
10437;DHT22;5265;50.006;9.202;2023-06-22T00:23:03;20.50;99.90
10437;DHT22;5265;50.006;9.202;2023-06-22T00:25:34;20.50;99.90
10437;DHT22;5265;50.006;9.202;2023-06-22T00:28:01;20.60;99.90
10437;DHT22;5265;50.006;9.202;2023-06-22T00:30:28;20.60;99.90
10437;DHT22;5265;50.006;9.202;2023-06-22T00:32:58;20.70;99.90
10437;DHT22;5265;50.006;9.202;2023-06-22T00:35:25;20.70;99.90
10437;DHT22;5265;50.006;9.202;2023-06-22T00:37:54;20.70;99.90
10437;DHT22;5265;50.006;9.202;2023-06-22T00:40:26;20.80;99.90
10437;DHT22;5265;50.006;9.202;2023-06-22T00:42:53;20.80;99.90
10437;DHT22;5265;50.006;9.202;2023-06-22T00:45:21;20.90;99.90
10437;DHT22;5265;50.006;9.202;2023-06-22T00:47:50;21.00;99.90
10437;DHT22;5265;50.006;9.202;2023-06-22T00:50:20;21.00;99.90
10437;DHT22;5265;50.006;9.202;2023-06-22T00:52:48;21.00;99.90
10437;DHT22;5265;50.006;9.202;2023-06-22T00:55:18;21.00;99.90
10437;DHT22;5265;50.006;9.202;2023-06-22T00:57:45;21.00;99.90
10437;DHT22;5265;50.006;9.202;2023-06-22T01:00:14;20.90;99.90
10437;DHT22;5265;50.006;9.202;2023-06-22T01:02:43;20.90;99.90
10437;DHT22;5265;50.006;9.202;2023-06-22T01:05:11;20.80;99.90
10437;DHT22;5265;50.006;9.202;2023-06-22T01:07:42;20.70;99.90
10437;DHT22;5265;50.006;9.202;2023-06-22T01:10:14;20.70;99.90
10437;DHT22;5265;50.006;9.202;2023-06-22T01:12:44;20.70;99.90
10437;DHT22;5265;50.006;9.202;2023-06-22T01:15:13;20.70;99.90
10437;DHT22;5265;50.006;9.202;2023-06-22T01:17:42;20.70;99.90
10437;DHT22;5265;50.006;9.202;2023-06-22T01:20:11;20.80;99.90
10437;DHT22;5265;50.006;9.202;2023-06-22T01:22:43;20.80;99.90
10437;DHT22;5265;50.006;9.202;2023-06-22T01:25:13;20.90;99.90
10437;DHT22;5265;50.006;9.202;2023-06-22T01:27:47;20.90;99.90
10437;DHT22;5265;50.006;9.202;2023-06-22T01:30:18;21.00;99.90
10437;DHT22;5265;50.006;9.202;2023-06-22T01:32:46;21.00;99.90
10437;DHT22;5265;50.006;9.202;2023-06-22T01:35:14;21.10;99.90
10437;DHT22;5265;50.006;9.202;2023-06-22T01:37:42;21.10;99.90
10437;DHT22;5265;50.006;9.202;2023-06-22T01:40:10;21.20;99.90
10437;DHT22;5265;50.006;9.202;2023-06-22T01:42:38;21.20;99.90
10437;DHT22;5265;50.006;9.202;2023-06-22T01:45:07;21.30;99.90
10437;DHT22;5265;50.006;9.202;2023-06-22T01:47:38;21.30;99.90
10437;DHT22;5265;50.006;9.202;2023-06-22T01:50:06;21.40;99.90
10437;DHT22;5265;50.006;9.202;2023-06-22T01:52:33;21.40;99.90
10437;DHT22;5265;50.006;9.202;2023-06-22T01:55:02;21.30;99.90
10437;DHT22;5265;50.006;9.202;2023-06-22T01:57:30;21.40;99.90
10437;DHT22;5265;50.006;9.202;2023-06-22T01:59:59;21.40;99.90
10437;DHT22;5265;50.006;9.202;2023-06-22T02:02:28;21.40;99.90
10437;DHT22;5265;50.006;9.202;2023-06-22T02:05:04;21.40;99.90
10437;DHT22;5265;50.006;9.202;2023-06-22T02:07:33;21.40;99.90
10437;DHT22;5265;50.006;9.202;2023-06-22T02:10:02;21.40;99.90
10437;DHT22;5265;50.006;9.202;2023-06-22T02:12:29;21.30;99.90
10437;DHT22;5265;50.006;9.202;2023-06-22T02:14:59;21.30;99.90
10437;DHT22;5265;50.006;9.202;2023-06-22T02:17:27;21.20;99.90
10437;DHT22;5265;50.006;9.202;2023-06-22T02:19:56;21.20;99.90
10437;DHT22;5265;50.006;9.202;2023-06-22T02:22:24;21.20;99.90
10437;DHT22;5265;50.006;9.202;2023-06-22T02:24:51;21.10;99.90
10437;DHT22;5265;50.006;9.202;2023-06-22T02:27:19;21.10;99.90
10437;DHT22;5265;50.006;9.202;2023-06-22T02:29:47;21.00;99.90
10437;DHT22;5265;50.006;9.202;2023-06-22T02:32:14;21.00;99.90
10437;DHT22;5265;50.006;9.202;2023-06-22T02:34:45;21.10;99.90
10437;DHT22;5265;50.006;9.202;2023-06-22T02:37:15;21.00;99.90
10437;DHT22;5265;50.006;9.202;2023-06-22T02:39:44;20.90;99.90
10437;DHT22;5265;50.006;9.202;2023-06-22T02:42:11;20.90;99.90
10437;DHT22;5265;50.006;9.202;2023-06-22T02:44:38;20.70;99.90
10437;DHT22;5265;50.006;9.202;2023-06-22T02:47:05;20.70;99.90
10437;DHT22;5265;50.006;9.202;2023-06-22T02:49:32;20.80;99.90
10437;DHT22;5265;50.006;9.202;2023-06-22T02:52:00;20.70;99.90
10437;DHT22;5265;50.006;9.202;2023-06-22T02:54:27;20.70;99.90
10437;DHT22;5265;50.006;9.202;2023-06-22T02:56:56;20.70;99.90
10437;DHT22;5265;50.006;9.202;2023-06-22T02:59:23;20.80;99.90
10437;DHT22;5265;50.006;9.202;2023-06-22T03:01:53;20.70;99.90
10437;DHT22;5265;50.006;9.202;2023-06-22T03:04:28;20.70;99.90
10437;DHT22;5265;50.006;9.202;2023-06-22T03:06:55;20.80;99.90
10437;DHT22;5265;50.006;9.202;2023-06-22T03:09:22;20.80;99.90
10437;DHT22;5265;50.006;9.202;2023-06-22T03:11:49;20.80;99.90
10437;DHT22;5265;50.006;9.202;2023-06-22T03:14:18;20.80;99.90
10437;DHT22;5265;50.006;9.202;2023-06-22T03:16:46;20.70;99.90
10437;DHT22;5265;50.006;9.202;2023-06-22T03:19:13;20.70;99.90
10437;DHT22;5265;50.006;9.202;2023-06-22T03:21:40;20.70;99.90
10437;DHT22;5265;50.006;9.202;2023-06-22T03:24:07;20.60;99.90
10437;DHT22;5265;50.006;9.202;2023-06-22T03:26:34;20.50;99.90
10437;DHT22;5265;50.006;9.202;2023-06-22T03:29:02;20.50;99.90
10437;DHT22;5265;50.006;9.202;2023-06-22T03:31:31;20.50;99.90
10437;DHT22;5265;50.006;9.202;2023-06-22T03:33:59;20.50;99.90
10437;DHT22;5265;50.006;9.202;2023-06-22T03:36:26;20.60;99.90
10437;DHT22;5265;50.006;9.202;2023-06-22T03:38:53;20.50;99.90
10437;DHT22;5265;50.006;9.202;2023-06-22T03:41:21;20.60;99.90
10437;DHT22;5265;50.006;9.202;2023-06-22T03:43:49;20.60;99.90
10437;DHT22;5265;50.006;9.202;2023-06-22T03:46:16;20.60;99.90
10437;DHT22;5265;50.006;9.202;2023-06-22T03:48:45;20.60;99.90
10437;DHT22;5265;50.006;9.202;2023-06-22T03:51:12;20.60;99.90
10437;DHT22;5265;50.006;9.202;2023-06-22T03:53:39;20.50;99.90
10437;DHT22;5265;50.006;9.202;2023-06-22T03:56:06;20.40;99.90
10437;DHT22;5265;50.006;9.202;2023-06-22T03:58:33;20.40;99.90
10437;DHT22;5265;50.006;9.202;2023-06-22T04:01:02;20.30;99.90
10437;DHT22;5265;50.006;9.202;2023-06-22T04:03:30;20.20;99.90
10437;DHT22;5265;50.006;9.202;2023-06-22T04:05:58;20.10;99.90
10437;DHT22;5265;50.006;9.202;2023-06-22T04:08:25;20.20;99.90
10437;DHT22;5265;50.006;9.202;2023-06-22T04:10:52;20.10;99.90
10437;DHT22;5265;50.006;9.202;2023-06-22T04:13:19;20.10;99.90
10437;DHT22;5265;50.006;9.202;2023-06-22T04:15:46;20.20;99.90
10437;DHT22;5265;50.006;9.202;2023-06-22T04:18:13;20.20;99.90
10437;DHT22;5265;50.006;9.202;2023-06-22T04:20:40;20.20;99.90
10437;DHT22;5265;50.006;9.202;2023-06-22T04:23:09;20.30;99.90
10437;DHT22;5265;50.006;9.202;2023-06-22T04:25:36;20.40;99.90
10437;DHT22;5265;50.006;9.202;2023-06-22T04:28:06;20.50;99.90
10437;DHT22;5265;50.006;9.202;2023-06-22T04:30:38;20.50;99.90
10437;DHT22;5265;50.006;9.202;2023-06-22T04:33:12;20.40;99.90
10437;DHT22;5265;50.006;9.202;2023-06-22T04:35:39;20.40;99.90
10437;DHT22;5265;50.006;9.202;2023-06-22T04:38:07;20.40;99.90
10437;DHT22;5265;50.006;9.202;2023-06-22T04:40:35;20.40;99.90
10437;DHT22;5265;50.006;9.202;2023-06-22T04:43:02;20.50;99.90
10437;DHT22;5265;50.006;9.202;2023-06-22T04:45:29;20.60;99.90
10437;DHT22;5265;50.006;9.202;2023-06-22T04:47:56;20.60;99.90
10437;DHT22;5265;50.006;9.202;2023-06-22T04:50:23;20.70;99.90
10437;DHT22;5265;50.006;9.202;2023-06-22T04:52:50;20.70;99.90
10437;DHT22;5265;50.006;9.202;2023-06-22T04:55:18;20.80;99.90
10437;DHT22;5265;50.006;9.202;2023-06-22T04:57:47;20.80;99.90
10437;DHT22;5265;50.006;9.202;2023-06-22T05:00:15;20.80;99.90
10437;DHT22;5265;50.006;9.202;2023-06-22T05:02:43;20.80;99.90
10437;DHT22;5265;50.006;9.202;2023-06-22T05:05:11;20.90;99.90
10437;DHT22;5265;50.006;9.202;2023-06-22T05:10:10;21.10;99.90
10437;DHT22;5265;50.006;9.202;2023-06-22T05:12:38;21.10;99.90
10437;DHT22;5265;50.006;9.202;2023-06-22T05:15:07;21.20;99.90
10437;DHT22;5265;50.006;9.202;2023-06-22T05:17:35;21.30;99.90
10437;DHT22;5265;50.006;9.202;2023-06-22T05:20:07;21.40;99.90
10437;DHT22;5265;50.006;9.202;2023-06-22T05:22:35;21.30;99.90
10437;DHT22;5265;50.006;9.202;2023-06-22T05:25:02;21.30;99.90
10437;DHT22;5265;50.006;9.202;2023-06-22T05:27:29;21.30;99.90
10437;DHT22;5265;50.006;9.202;2023-06-22T05:29:56;21.30;99.90
10437;DHT22;5265;50.006;9.202;2023-06-22T05:32:25;21.40;99.90
10437;DHT22;5265;50.006;9.202;2023-06-22T05:34:52;21.40;99.90
10437;DHT22;5265;50.006;9.202;2023-06-22T05:37:19;21.40;99.90
10437;DHT22;5265;50.006;9.202;2023-06-22T05:39:46;21.50;99.90
10437;DHT22;5265;50.006;9.202;2023-06-22T05:42:13;21.50;99.90
10437;DHT22;5265;50.006;9.202;2023-06-22T05:44:40;21.60;99.90
10437;DHT22;5265;50.006;9.202;2023-06-22T05:47:07;21.70;99.90
10437;DHT22;5265;50.006;9.202;2023-06-22T05:49:36;21.70;99.90
10437;DHT22;5265;50.006;9.202;2023-06-22T05:52:03;21.80;99.90
10437;DHT22;5265;50.006;9.202;2023-06-22T05:54:31;21.90;99.90
10437;DHT22;5265;50.006;9.202;2023-06-22T05:56:59;22.10;99.90
10437;DHT22;5265;50.006;9.202;2023-06-22T05:59:25;22.10;99.90
10437;DHT22;5265;50.006;9.202;2023-06-22T06:01:53;22.20;99.90
10437;DHT22;5265;50.006;9.202;2023-06-22T06:04:20;22.30;99.90
10437;DHT22;5265;50.006;9.202;2023-06-22T06:06:48;22.30;99.90
10437;DHT22;5265;50.006;9.202;2023-06-22T06:09:15;22.40;99.90
10437;DHT22;5265;50.006;9.202;2023-06-22T06:11:43;22.50;99.90
10437;DHT22;5265;50.006;9.202;2023-06-22T06:24:01;22.90;99.90
10437;DHT22;5265;50.006;9.202;2023-06-22T21:42:12;23.30;99.90
10437;DHT22;5265;50.006;9.202;2023-06-22T21:44:38;23.30;99.90
10437;DHT22;5265;50.006;9.202;2023-06-22T21:47:06;23.20;99.90
10437;DHT22;5265;50.006;9.202;2023-06-22T21:49:33;23.10;99.90
10437;DHT22;5265;50.006;9.202;2023-06-22T21:52:00;23.00;99.90
10437;DHT22;5265;50.006;9.202;2023-06-22T22:04:19;22.70;99.90
10437;DHT22;5265;50.006;9.202;2023-06-22T22:06:48;22.70;99.90
10437;DHT22;5265;50.006;9.202;2023-06-22T22:09:16;22.70;99.90
10437;DHT22;5265;50.006;9.202;2023-06-22T22:11:45;22.70;99.90
10437;DHT22;5265;50.006;9.202;2023-06-22T22:14:12;22.70;99.90
10437;DHT22;5265;50.006;9.202;2023-06-22T22:16:39;22.60;99.90
10437;DHT22;5265;50.006;9.202;2023-06-22T22:19:06;22.70;99.90
10437;DHT22;5265;50.006;9.202;2023-06-22T22:43:41;22.20;99.90
10437;DHT22;5265;50.006;9.202;2023-06-22T22:46:09;22.20;99.90
10437;DHT22;5265;50.006;9.202;2023-06-22T22:48:36;22.10;99.90
10437;DHT22;5265;50.006;9.202;2023-06-22T22:51:03;22.10;99.90
10437;DHT22;5265;50.006;9.202;2023-06-22T22:53:30;22.00;99.90
10437;DHT22;5265;50.006;9.202;2023-06-22T23:18:08;21.60;99.90
10437;DHT22;5265;50.006;9.202;2023-06-22T23:20:35;21.50;99.90
10437;DHT22;5265;50.006;9.202;2023-06-22T23:23:02;21.10;99.90
10437;DHT22;5265;50.006;9.202;2023-06-22T23:25:30;21.30;99.90
10437;DHT22;5265;50.006;9.202;2023-06-22T23:27:57;21.30;99.90
10437;DHT22;5265;50.006;9.202;2023-06-22T23:30:24;21.20;99.90
10437;DHT22;5265;50.006;9.202;2023-06-22T23:32:53;21.20;99.90
10437;DHT22;5265;50.006;9.202;2023-06-22T23:35:23;21.30;99.90
10437;DHT22;5265;50.006;9.202;2023-06-22T23:37:50;21.30;99.90
10437;DHT22;5265;50.006;9.202;2023-06-22T23:40:18;21.20;99.90
10437;DHT22;5265;50.006;9.202;2023-06-22T23:42:45;21.20;99.90
10437;DHT22;5265;50.006;9.202;2023-06-22T23:45:14;21.10;99.90
10437;DHT22;5265;50.006;9.202;2023-06-22T23:47:43;21.10;99.90
10437;DHT22;5265;50.006;9.202;2023-06-22T23:50:10;21.10;99.90
10437;DHT22;5265;50.006;9.202;2023-06-22T23:52:40;21.00;99.90
10437;DHT22;5265;50.006;9.202;2023-06-22T23:55:07;21.00;99.90
10437;DHT22;5265;50.006;9.202;2023-06-22T23:57:34;20.90;99.90
